createdAt,value
2022-12-22T00:00:08.339Z,46.70
2022-12-22T00:02:53.932Z,46.65
2022-12-22T00:05:40.809Z,46.73
2022-12-22T00:08:26.406Z,46.53
2022-12-22T00:11:12.186Z,46.54
2022-12-22T00:13:58.786Z,46.62
2022-12-22T00:16:46.333Z,46.57
2022-12-22T00:19:32.356Z,46.57
2022-12-22T00:22:21.288Z,46.69
2022-12-22T00:25:06.735Z,46.67
2022-12-22T00:27:52.203Z,46.54
2022-12-22T00:30:37.699Z,46.61
2022-12-22T00:33:23.567Z,46.56
2022-12-22T00:36:09.147Z,46.65
2022-12-22T00:38:54.616Z,46.47
2022-12-22T00:41:40.079Z,46.52
2022-12-22T00:44:25.518Z,46.55
2022-12-22T00:47:10.976Z,46.51
2022-12-22T00:49:56.440Z,46.53
2022-12-22T00:52:41.910Z,46.52
2022-12-22T00:55:35.535Z,46.52
2022-12-22T00:58:21.335Z,46.58
2022-12-22T01:01:06.868Z,46.53
2022-12-22T01:03:52.404Z,46.42
2022-12-22T01:06:37.894Z,46.53
2022-12-22T01:09:23.880Z,46.39
2022-12-22T01:12:09.523Z,46.54
2022-12-22T01:14:54.978Z,46.60
2022-12-22T01:17:40.436Z,46.48
2022-12-22T01:20:26.267Z,46.48
2022-12-22T01:23:11.733Z,46.60
2022-12-22T01:25:57.196Z,46.43
2022-12-22T01:28:42.646Z,46.59
2022-12-22T01:31:32.938Z,46.57
2022-12-22T01:34:18.383Z,46.56
2022-12-22T01:37:03.837Z,46.54
2022-12-22T01:39:49.294Z,46.59
2022-12-22T01:42:34.779Z,46.36
2022-12-22T01:45:21.620Z,46.43
2022-12-22T01:48:07.079Z,46.66
2022-12-22T01:50:53.297Z,46.53
2022-12-22T01:53:39.828Z,46.57
2022-12-22T01:56:25.431Z,46.58
2022-12-22T01:59:11.925Z,46.40
2022-12-22T02:01:57.584Z,46.41
2022-12-22T02:04:43.537Z,46.51
2022-12-22T02:07:33.655Z,46.50
2022-12-22T02:10:22.754Z,46.42
2022-12-22T02:13:13.355Z,46.43
2022-12-22T02:16:07.648Z,46.61
2022-12-22T02:18:57.772Z,46.55
2022-12-22T02:21:43.763Z,46.62
2022-12-22T02:24:35.487Z,46.45
2022-12-22T02:27:21.096Z,46.51
2022-12-22T02:30:07.451Z,46.55
2022-12-22T02:32:53.518Z,46.58
2022-12-22T02:35:39.053Z,46.59
2022-12-22T02:38:28.335Z,46.33
2022-12-22T02:41:25.489Z,46.47
2022-12-22T02:44:30.916Z,46.51
2022-12-22T02:47:19.640Z,46.52
2022-12-22T02:50:10.605Z,46.47
2022-12-22T02:52:56.101Z,46.47
2022-12-22T02:55:41.575Z,46.50
2022-12-22T02:58:27.069Z,46.52
2022-12-22T03:01:12.519Z,46.50
2022-12-22T03:03:58.040Z,46.50
2022-12-22T03:06:43.562Z,46.57
2022-12-22T03:09:29.016Z,46.55
2022-12-22T03:12:14.474Z,46.54
2022-12-22T03:14:59.932Z,46.38
2022-12-22T03:17:45.390Z,46.51
2022-12-22T03:20:30.852Z,46.42
2022-12-22T03:23:16.314Z,46.48
2022-12-22T03:25:57.048Z,46.43
2022-12-22T03:28:23.808Z,46.21
2022-12-22T03:30:53.912Z,46.36
2022-12-22T03:33:19.773Z,46.48
2022-12-22T03:35:45.321Z,46.54
2022-12-22T03:38:10.878Z,46.44
2022-12-22T03:40:36.430Z,46.60
2022-12-22T03:43:21.891Z,46.45
2022-12-22T03:46:07.345Z,46.47
2022-12-22T03:48:32.888Z,46.45
2022-12-22T03:50:58.448Z,46.53
2022-12-22T03:53:24.006Z,46.46
2022-12-22T03:55:49.585Z,46.47
2022-12-22T03:58:15.143Z,46.42
2022-12-22T04:00:40.728Z,46.47
2022-12-22T04:03:06.525Z,46.44
2022-12-22T04:05:32.186Z,46.41
2022-12-22T04:07:57.740Z,46.32
2022-12-22T04:10:43.237Z,46.46
2022-12-22T04:13:08.801Z,46.50
2022-12-22T04:15:34.352Z,46.48
2022-12-22T04:17:59.939Z,46.42
2022-12-22T04:20:26.754Z,46.55
2022-12-22T04:22:52.852Z,46.50
2022-12-22T04:25:18.467Z,46.42
2022-12-22T04:27:44.065Z,46.39
2022-12-22T04:30:09.813Z,46.44
2022-12-22T04:32:35.428Z,46.30
2022-12-22T04:35:00.983Z,46.56
2022-12-22T04:37:26.542Z,46.48
2022-12-22T04:39:52.107Z,46.58
2022-12-22T04:42:17.675Z,46.40
2022-12-22T04:44:43.231Z,46.59
2022-12-22T04:47:08.836Z,46.60
2022-12-22T04:49:34.376Z,46.46
2022-12-22T04:51:59.937Z,46.59
2022-12-22T04:54:25.506Z,46.56
2022-12-22T04:56:51.600Z,46.46
2022-12-22T04:59:17.158Z,46.50
2022-12-22T05:01:42.793Z,46.39
2022-12-22T05:04:08.444Z,46.45
2022-12-22T05:06:33.988Z,46.41
2022-12-22T05:08:59.543Z,46.39
2022-12-22T05:11:25.103Z,46.38
2022-12-22T05:13:50.654Z,46.45
2022-12-22T05:16:16.458Z,46.47
2022-12-22T05:18:42.648Z,46.45
2022-12-22T05:21:09.427Z,46.42
2022-12-22T05:23:35.010Z,46.55
2022-12-22T05:26:00.581Z,46.47
2022-12-22T05:28:26.141Z,46.59
2022-12-22T05:30:52.486Z,46.42
2022-12-22T05:33:18.517Z,46.47
2022-12-22T05:35:44.086Z,46.59
2022-12-22T05:38:09.645Z,46.48
2022-12-22T05:40:35.214Z,46.51
2022-12-22T05:43:00.820Z,46.42
2022-12-22T05:45:26.392Z,46.78
2022-12-22T05:47:52.041Z,46.42
2022-12-22T05:50:18.907Z,46.39
2022-12-22T05:52:44.465Z,46.47
2022-12-22T05:55:10.191Z,46.55
2022-12-22T05:57:35.864Z,46.46
2022-12-22T06:00:01.585Z,46.41
2022-12-22T06:02:27.410Z,46.48
2022-12-22T06:04:53.065Z,46.46
2022-12-22T06:07:18.625Z,46.52
2022-12-22T06:09:44.187Z,46.41
2022-12-22T06:12:09.790Z,46.44
2022-12-22T06:14:35.361Z,46.52
2022-12-22T06:17:00.931Z,46.47
2022-12-22T06:19:26.526Z,46.48
2022-12-22T06:21:52.077Z,46.48
2022-12-22T06:24:17.663Z,46.39
2022-12-22T06:26:43.213Z,46.17
2022-12-22T06:29:08.776Z,46.53
2022-12-22T06:31:34.374Z,46.42
2022-12-22T06:33:59.963Z,46.39
2022-12-22T06:36:25.514Z,46.37
2022-12-22T06:38:51.078Z,46.51
2022-12-22T06:41:36.548Z,46.46
2022-12-22T06:44:02.149Z,46.49
2022-12-22T06:46:27.790Z,46.39
2022-12-22T06:48:53.421Z,46.46
2022-12-22T06:51:18.974Z,46.46
2022-12-22T06:53:44.540Z,48.88
2022-12-22T06:56:10.097Z,47.21
2022-12-22T06:58:35.646Z,47.07
2022-12-22T07:01:01.223Z,47.03
2022-12-22T07:03:26.922Z,47.02
2022-12-22T07:05:52.574Z,47.03
2022-12-22T07:08:18.146Z,47.09
2022-12-22T07:10:59.078Z,47.02
2022-12-22T07:13:26.561Z,47.04
2022-12-22T07:15:59.648Z,46.85
2022-12-22T07:18:26.323Z,46.85
2022-12-22T07:20:53.103Z,46.75
2022-12-22T07:23:18.653Z,46.75
2022-12-22T07:25:44.216Z,46.72
2022-12-22T07:28:13.634Z,46.80
2022-12-22T07:30:42.204Z,46.88
2022-12-22T07:33:07.745Z,46.75
2022-12-22T07:35:33.319Z,46.59
2022-12-22T07:37:58.863Z,46.69
2022-12-22T07:40:24.475Z,46.84
2022-12-22T07:42:50.018Z,46.60
2022-12-22T07:45:16.530Z,46.77
2022-12-22T07:47:42.426Z,46.80
2022-12-22T07:50:24.668Z,46.75
2022-12-22T07:52:51.957Z,46.67
2022-12-22T07:55:17.819Z,46.43
2022-12-22T07:57:43.391Z,46.74
2022-12-22T08:00:09.171Z,46.75
2022-12-22T08:02:38.788Z,46.65
2022-12-22T08:05:05.152Z,46.64
2022-12-22T08:07:31.879Z,46.56
2022-12-22T08:09:57.673Z,46.57
2022-12-22T08:12:23.219Z,46.76
2022-12-22T08:14:48.775Z,46.49
2022-12-22T08:17:14.326Z,46.56
2022-12-22T08:19:39.884Z,46.68
2022-12-22T08:22:05.620Z,46.58
2022-12-22T08:24:31.182Z,46.59
2022-12-22T08:26:59.171Z,46.59
2022-12-22T08:29:26.737Z,46.61
2022-12-22T08:31:52.377Z,46.71
2022-12-22T08:34:18.035Z,49.63
2022-12-22T08:36:44.814Z,47.36
2022-12-22T08:39:10.375Z,47.38
2022-12-22T08:41:51.059Z,47.54
2022-12-22T08:44:18.333Z,48.11
2022-12-22T08:46:43.969Z,47.51
2022-12-22T08:49:09.556Z,47.57
2022-12-22T08:51:35.107Z,47.61
2022-12-22T08:54:05.628Z,47.56
2022-12-22T08:56:31.614Z,47.58
2022-12-22T08:58:57.186Z,47.54
2022-12-22T09:01:22.871Z,47.58
2022-12-22T09:03:49.318Z,47.57
2022-12-22T09:06:14.877Z,47.48
2022-12-22T09:08:40.441Z,47.43
2022-12-22T09:11:06.034Z,47.36
2022-12-22T09:13:31.588Z,47.27
2022-12-22T09:15:57.282Z,47.24
2022-12-22T09:18:22.849Z,47.39
2022-12-22T09:20:53.524Z,47.21
2022-12-22T09:23:19.090Z,47.35
2022-12-22T09:25:44.650Z,47.31
2022-12-22T09:28:11.219Z,47.28
2022-12-22T09:30:36.796Z,47.38
2022-12-22T09:33:02.354Z,47.34
2022-12-22T09:35:27.912Z,47.34
2022-12-22T09:37:53.489Z,47.30
2022-12-22T09:40:20.973Z,48.30
2022-12-22T09:42:46.580Z,47.60
2022-12-22T09:45:19.072Z,47.69
2022-12-22T09:47:45.828Z,47.66
2022-12-22T09:50:11.980Z,49.07
2022-12-22T09:52:40.301Z,48.63
2022-12-22T09:55:25.742Z,48.75
2022-12-22T09:57:52.370Z,48.58
2022-12-22T10:00:19.084Z,48.75
2022-12-22T10:03:01.054Z,49.25
2022-12-22T10:05:43.270Z,49.26
2022-12-22T10:08:09.628Z,49.70
2022-12-22T10:10:35.192Z,49.37
2022-12-22T10:13:01.394Z,48.96
2022-12-22T10:15:27.236Z,49.09
2022-12-22T10:17:53.567Z,51.20
2022-12-22T10:20:21.856Z,49.79
2022-12-22T10:22:48.437Z,49.96
2022-12-22T10:28:20.505Z,50.01
2022-12-22T10:30:46.075Z,49.90
2022-12-22T10:33:12.553Z,49.92
2022-12-22T10:35:54.423Z,49.94
2022-12-22T10:38:39.960Z,49.60
2022-12-22T10:41:21.052Z,49.94
2022-12-22T10:43:50.607Z,49.86
2022-12-22T10:46:16.277Z,51.26
2022-12-22T10:48:41.938Z,49.86
2022-12-22T10:51:08.033Z,50.03
2022-12-22T10:53:42.158Z,50.07
2022-12-22T10:56:07.959Z,49.91
2022-12-22T10:58:45.684Z,49.88
2022-12-22T11:01:11.316Z,49.61
2022-12-22T11:03:37.133Z,49.71
2022-12-22T11:06:04.966Z,49.62
2022-12-22T11:08:30.600Z,49.64
2022-12-22T11:10:57.877Z,49.47
2022-12-22T11:13:37.121Z,49.47
2022-12-22T11:16:03.337Z,49.60
2022-12-22T11:18:48.770Z,49.52
2022-12-22T11:21:23.752Z,49.60
2022-12-22T11:23:53.349Z,49.26
2022-12-22T11:26:23.006Z,49.35
2022-12-22T11:29:08.448Z,49.29
2022-12-22T11:31:39.000Z,49.18
2022-12-22T11:34:09.487Z,49.12
2022-12-22T11:36:54.958Z,49.13
2022-12-22T11:39:28.586Z,49.90
2022-12-22T11:41:59.040Z,49.26
2022-12-22T11:44:27.909Z,49.43
2022-12-22T11:47:02.514Z,49.28
2022-12-22T11:49:34.101Z,49.30
2022-12-22T11:52:19.689Z,49.29
2022-12-22T11:54:54.490Z,49.23
2022-12-22T11:57:39.950Z,49.13
2022-12-22T12:00:13.499Z,49.18
2022-12-22T12:02:43.827Z,49.11
2022-12-22T12:05:29.305Z,49.12
2022-12-22T12:08:14.784Z,49.21
2022-12-22T12:10:42.205Z,49.21
2022-12-22T12:13:11.854Z,49.12
2022-12-22T12:15:40.200Z,48.95
2022-12-22T12:18:10.684Z,48.92
2022-12-22T12:20:38.371Z,48.91
2022-12-22T12:23:23.856Z,49.05
2022-12-22T12:25:53.956Z,48.83
2022-12-22T12:28:30.197Z,48.84
2022-12-22T12:30:57.108Z,48.95
2022-12-22T12:33:34.272Z,48.82
2022-12-22T12:36:02.590Z,48.83
2022-12-22T12:39:06.463Z,48.72
2022-12-22T12:41:32.932Z,48.71
2022-12-22T12:43:58.496Z,48.88
2022-12-22T12:46:44.166Z,48.85
2022-12-22T12:49:29.647Z,48.73
2022-12-22T12:51:55.191Z,49.07
2022-12-22T12:54:21.815Z,49.02
2022-12-22T12:57:07.240Z,48.96
2022-12-22T13:02:34.479Z,48.76
2022-12-22T13:05:02.214Z,48.98
2022-12-22T13:07:47.653Z,49.00
2022-12-22T13:10:17.932Z,48.72
2022-12-22T13:12:51.644Z,48.81
2022-12-22T13:15:33.060Z,48.60
2022-12-22T13:17:59.543Z,48.54
2022-12-22T13:20:26.951Z,48.63
2022-12-22T13:22:53.471Z,48.50
2022-12-22T13:25:19.014Z,48.73
2022-12-22T13:27:44.767Z,48.51
2022-12-22T13:30:14.090Z,48.43
2022-12-22T13:32:39.893Z,48.45
2022-12-22T13:35:35.448Z,48.68
2022-12-22T13:38:02.240Z,48.43
2022-12-22T13:40:30.155Z,48.38
2022-12-22T13:42:57.075Z,48.44
2022-12-22T13:45:25.559Z,48.38
2022-12-22T13:47:51.124Z,48.51
2022-12-22T13:50:17.680Z,48.51
2022-12-22T13:52:43.225Z,48.40
2022-12-22T13:55:11.782Z,48.43
2022-12-22T13:57:37.329Z,48.34
2022-12-22T14:00:03.041Z,48.26
2022-12-22T14:02:30.725Z,48.17
2022-12-22T14:05:04.928Z,48.31
2022-12-22T14:07:30.483Z,48.46
2022-12-22T14:09:56.046Z,48.41
2022-12-22T14:12:23.429Z,48.21
2022-12-22T14:14:49.588Z,48.40
2022-12-22T14:17:23.965Z,48.14
2022-12-22T14:19:50.549Z,48.34
2022-12-22T14:22:17.889Z,48.16
2022-12-22T14:24:45.261Z,48.39
2022-12-22T14:27:18.206Z,48.08
2022-12-22T14:29:43.875Z,48.25
2022-12-22T14:32:09.472Z,48.13
2022-12-22T14:34:35.117Z,48.33
2022-12-22T14:37:01.098Z,48.25
2022-12-22T14:39:30.086Z,48.14
2022-12-22T14:41:56.102Z,48.20
2022-12-22T14:49:50.080Z,48.05
2022-12-22T14:52:18.090Z,47.99
2022-12-22T14:54:45.179Z,48.21
2022-12-22T14:57:15.560Z,48.03
2022-12-22T14:59:42.740Z,48.02
2022-12-22T15:02:32.196Z,47.99
2022-12-22T15:05:20.529Z,48.13
2022-12-22T15:08:06.095Z,48.16
2022-12-22T15:10:41.163Z,47.99
2022-12-22T15:13:10.201Z,48.16
2022-12-22T15:15:35.757Z,48.13
2022-12-22T15:18:01.387Z,47.90
2022-12-22T15:20:26.952Z,47.95
2022-12-22T15:22:52.579Z,48.07
2022-12-22T15:25:19.334Z,48.04
2022-12-22T15:27:44.895Z,47.99
2022-12-22T15:30:11.125Z,48.11
2022-12-22T15:32:38.119Z,47.85
2022-12-22T15:35:08.623Z,48.04
2022-12-22T15:37:34.183Z,47.87
2022-12-22T15:39:59.744Z,48.02
2022-12-22T15:42:25.299Z,47.89
2022-12-22T15:44:50.862Z,48.07
2022-12-22T15:47:16.403Z,47.69
2022-12-22T15:49:41.971Z,47.88
2022-12-22T15:52:07.549Z,47.87
2022-12-22T15:54:33.194Z,47.98
2022-12-22T15:56:58.792Z,47.93
2022-12-22T15:59:24.881Z,47.94
2022-12-22T16:01:54.991Z,47.82
2022-12-22T16:04:25.112Z,47.96
2022-12-22T16:06:50.679Z,47.77
2022-12-22T16:09:17.886Z,47.95
2022-12-22T16:11:43.434Z,47.77
2022-12-22T16:14:09.612Z,47.75
2022-12-22T16:16:35.231Z,47.90
2022-12-22T16:19:00.831Z,47.94
2022-12-22T16:21:28.220Z,47.67
2022-12-22T16:23:54.805Z,47.71
2022-12-22T16:26:20.507Z,47.60
2022-12-22T16:28:46.092Z,47.96
2022-12-22T16:31:15.734Z,47.86
2022-12-22T16:33:41.375Z,47.86
2022-12-22T16:36:07.149Z,47.57
2022-12-22T16:38:33.816Z,47.82
2022-12-22T16:40:59.387Z,47.73
2022-12-22T16:46:11.679Z,47.84
2022-12-22T16:48:39.191Z,47.65
2022-12-22T16:51:04.875Z,47.95
2022-12-22T16:53:30.455Z,47.83
2022-12-22T16:55:56.451Z,47.74
2022-12-22T16:58:22.029Z,47.75
2022-12-22T17:00:47.595Z,47.84
2022-12-22T17:03:14.867Z,47.70
2022-12-22T17:05:44.833Z,47.63
2022-12-22T17:08:16.239Z,47.97
2022-12-22T17:10:41.798Z,47.75
2022-12-22T17:13:08.214Z,47.86
2022-12-22T17:15:33.800Z,47.87
2022-12-22T17:17:59.395Z,47.83
2022-12-22T17:20:25.572Z,47.95
2022-12-22T17:22:52.109Z,47.81
2022-12-22T17:25:19.498Z,48.03
2022-12-22T17:27:45.057Z,47.80
2022-12-22T17:30:18.215Z,47.96
2022-12-22T17:32:44.296Z,47.63
2022-12-22T17:35:11.690Z,47.77
2022-12-22T17:37:37.250Z,47.79
2022-12-22T17:40:02.918Z,47.95
2022-12-22T17:42:30.513Z,47.91
2022-12-22T17:44:56.161Z,47.95
2022-12-22T17:47:26.878Z,47.98
2022-12-22T17:49:57.795Z,47.88
2022-12-22T17:52:23.517Z,47.92
2022-12-22T17:54:50.001Z,47.89
2022-12-22T17:57:19.559Z,47.71
2022-12-22T17:59:45.180Z,47.77
2022-12-22T18:02:18.569Z,47.72
2022-12-22T18:04:44.434Z,47.87
2022-12-22T18:07:10.049Z,47.88
2022-12-22T18:09:35.674Z,47.70
2022-12-22T18:12:01.256Z,47.73
2022-12-22T18:14:26.819Z,47.86
2022-12-22T18:16:52.422Z,47.69
2022-12-22T18:19:18.061Z,47.71
2022-12-22T18:21:43.645Z,47.67
2022-12-22T18:24:13.548Z,47.94
2022-12-22T18:26:39.106Z,47.88
2022-12-22T18:29:05.400Z,47.85
2022-12-22T18:31:30.989Z,47.88
2022-12-22T18:33:56.583Z,47.99
2022-12-22T18:36:27.408Z,47.89
2022-12-22T18:38:52.976Z,48.19
2022-12-22T18:41:19.824Z,47.86
2022-12-22T18:43:45.647Z,47.78
2022-12-22T18:46:11.208Z,47.66
2022-12-22T18:48:36.753Z,47.65
2022-12-22T18:51:02.306Z,47.62
2022-12-22T18:53:28.929Z,47.69
2022-12-22T18:55:54.737Z,47.94
2022-12-22T18:58:20.304Z,47.66
2022-12-22T19:00:45.997Z,47.93
2022-12-22T19:03:14.336Z,47.77
2022-12-22T19:05:40.355Z,47.95
2022-12-22T19:08:08.312Z,47.69
2022-12-22T19:10:35.012Z,47.74
2022-12-22T19:13:00.560Z,47.68
2022-12-22T19:15:27.901Z,47.92
2022-12-22T19:17:53.506Z,47.82
2022-12-22T19:20:20.422Z,47.60
2022-12-22T19:22:46.193Z,47.85
2022-12-22T19:25:12.378Z,47.73
2022-12-22T19:27:37.957Z,47.73
2022-12-22T19:30:04.918Z,47.82
2022-12-22T19:32:33.299Z,47.87
2022-12-22T19:34:58.922Z,47.89
2022-12-22T19:37:24.485Z,47.84
2022-12-22T19:39:50.055Z,47.83
2022-12-22T19:42:16.490Z,47.84
2022-12-22T19:44:42.205Z,47.65
2022-12-22T19:47:12.841Z,47.62
2022-12-22T19:49:39.029Z,47.83
2022-12-22T19:52:04.593Z,47.59
2022-12-22T19:54:31.523Z,47.70
2022-12-22T19:56:57.107Z,47.60
2022-12-22T19:59:29.571Z,47.58
2022-12-22T20:01:57.275Z,47.74
2022-12-22T20:04:22.962Z,47.53
2022-12-22T20:06:48.518Z,47.75
2022-12-22T20:09:14.069Z,47.75
2022-12-22T20:11:39.614Z,47.57
2022-12-22T20:14:05.176Z,47.60
2022-12-22T20:16:30.740Z,47.72
2022-12-22T20:18:56.315Z,47.60
2022-12-22T20:21:25.504Z,47.62
2022-12-22T20:23:51.304Z,47.43
2022-12-22T20:26:17.525Z,47.48
2022-12-22T20:28:43.086Z,47.80
2022-12-22T20:31:10.284Z,47.64
2022-12-22T20:33:35.848Z,47.43
2022-12-22T20:36:01.424Z,47.67
2022-12-22T20:38:35.193Z,47.67
2022-12-22T20:41:00.868Z,47.60
2022-12-22T20:43:26.929Z,47.62
2022-12-22T20:45:53.347Z,47.60
2022-12-22T20:48:35.636Z,47.73
2022-12-22T20:51:01.815Z,47.72
2022-12-22T20:53:27.370Z,47.52
2022-12-22T20:55:52.923Z,47.55
2022-12-22T20:58:21.735Z,47.61
2022-12-22T21:00:48.087Z,47.69
2022-12-22T21:03:13.740Z,47.51
2022-12-22T21:05:39.400Z,47.48
2022-12-22T21:08:05.893Z,47.52
2022-12-22T21:10:31.439Z,47.73
2022-12-22T21:12:57.098Z,47.66
2022-12-22T21:15:23.683Z,47.52
2022-12-22T21:17:56.000Z,47.43
2022-12-22T21:20:25.012Z,47.52
2022-12-22T21:22:50.675Z,47.66
2022-12-22T21:25:16.235Z,47.65
2022-12-22T21:27:42.383Z,47.64
2022-12-22T21:30:13.571Z,47.67
2022-12-22T21:32:39.155Z,47.49
2022-12-22T21:35:08.314Z,47.56
2022-12-22T21:37:35.061Z,47.57
2022-12-22T21:40:00.613Z,47.54
2022-12-22T21:42:26.222Z,47.65
2022-12-22T21:44:51.780Z,47.56
2022-12-22T21:47:17.966Z,47.70
2022-12-22T21:49:43.522Z,47.70
2022-12-22T21:52:09.076Z,47.45
2022-12-22T21:54:34.633Z,47.58
2022-12-22T21:57:00.202Z,47.68
2022-12-22T21:59:25.773Z,47.59
2022-12-22T22:01:52.555Z,47.59
2022-12-22T22:04:18.502Z,47.65
2022-12-22T22:06:44.050Z,47.50
2022-12-22T22:09:11.847Z,47.68
2022-12-22T22:11:57.322Z,47.55
2022-12-22T22:14:23.009Z,47.45
2022-12-22T22:16:48.885Z,47.58
2022-12-22T22:19:14.473Z,47.46
2022-12-22T22:21:40.023Z,47.55
2022-12-22T22:24:05.689Z,47.51
2022-12-22T22:26:31.234Z,47.84
2022-12-22T22:28:56.957Z,47.58
2022-12-22T22:31:22.579Z,47.53
2022-12-22T22:33:48.412Z,47.56
2022-12-22T22:36:13.975Z,47.43
2022-12-22T22:38:39.532Z,47.67
2022-12-22T22:41:05.088Z,47.65
2022-12-22T22:43:30.713Z,47.61
2022-12-22T22:45:56.322Z,47.40
2022-12-22T22:48:22.288Z,47.41
2022-12-22T22:50:48.055Z,47.52
2022-12-22T22:53:13.715Z,47.52
2022-12-22T22:55:39.268Z,47.51
2022-12-22T22:58:04.845Z,47.84
2022-12-22T23:00:30.396Z,47.49
2022-12-22T23:02:56.131Z,47.53
2022-12-22T23:05:23.160Z,47.44
2022-12-22T23:07:48.889Z,47.50
2022-12-22T23:10:14.480Z,47.58
2022-12-22T23:12:40.079Z,47.54
2022-12-22T23:15:05.838Z,47.54
2022-12-22T23:17:31.406Z,47.57
2022-12-22T23:19:56.953Z,47.62
2022-12-22T23:22:22.531Z,47.39
2022-12-22T23:24:48.077Z,47.40
2022-12-22T23:27:13.637Z,47.44
2022-12-22T23:29:39.199Z,47.53
2022-12-22T23:32:04.795Z,47.57
2022-12-22T23:34:30.359Z,47.49
2022-12-22T23:36:55.923Z,47.61
2022-12-22T23:39:21.479Z,47.49
2022-12-22T23:41:47.030Z,47.67
2022-12-22T23:44:12.583Z,47.49
2022-12-22T23:46:38.751Z,47.53
2022-12-22T23:49:04.347Z,47.53
2022-12-22T23:51:29.904Z,47.50
2022-12-22T23:53:56.015Z,47.53
2022-12-22T23:56:21.881Z,47.70
2022-12-22T23:58:52.592Z,47.72
